createdAt,value
2023-01-26T00:01:23.893Z,2.70
2023-01-26T00:03:55.117Z,2.60
2023-01-26T00:06:26.341Z,2.80
2023-01-26T00:08:57.658Z,2.60
2023-01-26T00:11:30.366Z,2.60
2023-01-26T00:14:01.608Z,2.60
2023-01-26T00:16:32.583Z,2.50
2023-01-26T00:19:03.938Z,2.50
2023-01-26T00:21:34.901Z,2.40
2023-01-26T00:24:06.291Z,2.40
2023-01-26T00:26:37.157Z,2.40
2023-01-26T00:29:08.011Z,2.40
2023-01-26T00:31:38.907Z,2.40
2023-01-26T00:34:09.805Z,2.40
2023-01-26T00:36:40.648Z,2.40
2023-01-26T00:39:11.586Z,2.40
2023-01-26T00:42:00.889Z,2.40
2023-01-26T00:44:31.861Z,2.40
2023-01-26T00:47:02.817Z,2.50
2023-01-26T00:49:34.337Z,2.50
2023-01-26T00:52:06.092Z,2.50
2023-01-26T00:54:36.999Z,2.50
2023-01-26T00:57:07.921Z,2.50
2023-01-26T00:59:38.819Z,2.40
2023-01-26T01:02:09.717Z,2.40
2023-01-26T01:04:40.588Z,2.40
2023-01-26T01:07:11.449Z,2.30
2023-01-26T01:09:42.354Z,2.30
2023-01-26T01:12:13.232Z,2.30
2023-01-26T01:14:44.226Z,2.30
2023-01-26T01:17:15.068Z,2.20
2023-01-26T01:19:46.022Z,2.10
2023-01-26T01:22:16.945Z,2.10
2023-01-26T01:24:47.846Z,2.00
2023-01-26T01:27:18.700Z,2.00
2023-01-26T01:29:51.317Z,2.20
2023-01-26T01:32:22.331Z,2.10
2023-01-26T01:34:53.199Z,2.00
2023-01-26T01:37:24.091Z,2.00
2023-01-26T01:39:55.041Z,2.10
2023-01-26T01:42:26.691Z,2.00
2023-01-26T01:45:40.633Z,1.90
2023-01-26T01:48:25.757Z,2.00
2023-01-26T01:51:02.063Z,2.00
2023-01-26T01:53:41.779Z,2.10
2023-01-26T01:56:22.111Z,1.90
2023-01-26T01:58:57.531Z,1.90
2023-01-26T02:01:28.485Z,1.90
2023-01-26T02:04:02.348Z,1.90
2023-01-26T02:06:42.091Z,1.90
2023-01-26T02:09:34.375Z,1.90
2023-01-26T02:12:09.050Z,1.80
2023-01-26T02:14:41.097Z,1.90
2023-01-26T02:17:11.977Z,1.90
2023-01-26T02:19:55.082Z,2.00
2023-01-26T02:22:38.296Z,2.00
2023-01-26T02:25:39.121Z,1.90
2023-01-26T02:28:10.054Z,2.00
2023-01-26T02:30:41.015Z,1.90
2023-01-26T02:33:27.326Z,1.90
2023-01-26T02:35:59.146Z,1.90
2023-01-26T02:38:45.016Z,1.90
2023-01-26T02:41:37.651Z,2.00
2023-01-26T02:44:11.616Z,2.00
2023-01-26T02:46:42.521Z,1.90
2023-01-26T02:49:32.121Z,1.90
2023-01-26T02:52:05.619Z,2.00
2023-01-26T02:54:54.869Z,1.90
2023-01-26T02:57:26.508Z,2.00
2023-01-26T02:59:57.680Z,1.80
2023-01-26T03:02:28.630Z,1.90
2023-01-26T03:04:59.525Z,1.90
2023-01-26T03:07:31.065Z,1.80
2023-01-26T03:10:02.008Z,1.80
2023-01-26T03:12:32.879Z,1.80
2023-01-26T03:15:24.873Z,1.80
2023-01-26T03:18:33.433Z,1.70
2023-01-26T03:21:29.226Z,1.80
2023-01-26T03:24:20.090Z,1.90
2023-01-26T03:27:09.361Z,2.00
2023-01-26T03:29:40.332Z,2.00
2023-01-26T03:32:11.755Z,2.00
2023-01-26T03:34:42.796Z,1.90
2023-01-26T03:37:13.633Z,2.00
2023-01-26T03:40:02.976Z,2.10
2023-01-26T03:42:53.644Z,2.10
2023-01-26T03:45:42.862Z,2.00
2023-01-26T03:48:32.196Z,2.00
2023-01-26T03:51:21.745Z,1.90
2023-01-26T03:54:11.148Z,1.70
2023-01-26T03:56:41.997Z,1.70
2023-01-26T03:59:15.422Z,1.80
2023-01-26T04:02:06.413Z,1.60
2023-01-26T04:04:55.561Z,1.70
2023-01-26T04:07:44.756Z,1.70
2023-01-26T04:10:16.091Z,1.70
2023-01-26T04:13:05.539Z,1.70
2023-01-26T04:15:56.015Z,1.70
2023-01-26T04:18:45.645Z,1.60
2023-01-26T04:21:34.969Z,1.60
2023-01-26T04:24:16.772Z,1.70
2023-01-26T04:26:48.711Z,1.70
2023-01-26T04:29:19.622Z,1.70
2023-01-26T04:31:50.572Z,1.50
2023-01-26T04:34:22.092Z,1.50
2023-01-26T04:36:53.252Z,1.50
2023-01-26T04:39:24.142Z,1.60
2023-01-26T04:41:55.020Z,1.40
2023-01-26T04:44:25.945Z,1.50
2023-01-26T04:46:56.802Z,1.60
2023-01-26T04:49:27.642Z,1.50
2023-01-26T04:51:58.502Z,1.50
2023-01-26T04:54:29.435Z,1.40
2023-01-26T04:57:00.280Z,1.40
2023-01-26T04:59:31.332Z,1.40
2023-01-26T05:02:02.216Z,1.30
2023-01-26T05:04:33.218Z,1.20
2023-01-26T05:07:07.163Z,1.40
2023-01-26T05:09:38.054Z,1.60
2023-01-26T05:12:27.441Z,1.70
2023-01-26T05:14:58.317Z,1.60
2023-01-26T05:17:29.186Z,1.40
2023-01-26T05:20:00.082Z,1.40
2023-01-26T05:22:30.917Z,1.20
2023-01-26T05:25:01.809Z,1.20
2023-01-26T05:27:32.726Z,1.10
2023-01-26T05:30:04.226Z,1.20
2023-01-26T05:32:35.283Z,1.30
2023-01-26T05:35:07.919Z,1.20
2023-01-26T05:37:38.790Z,1.30
2023-01-26T05:40:11.545Z,1.30
2023-01-26T05:42:44.056Z,1.20
2023-01-26T05:45:15.360Z,1.20
2023-01-26T05:47:47.107Z,1.20
2023-01-26T05:50:18.382Z,1.30
2023-01-26T05:52:49.921Z,1.30
2023-01-26T05:55:20.863Z,1.30
2023-01-26T05:57:51.682Z,1.30
2023-01-26T06:00:23.013Z,1.20
2023-01-26T06:02:53.924Z,1.10
2023-01-26T06:05:24.837Z,1.50
2023-01-26T06:07:55.650Z,1.50
2023-01-26T06:10:26.765Z,1.20
2023-01-26T06:12:59.355Z,1.20
2023-01-26T06:15:30.229Z,1.20
2023-01-26T06:18:02.184Z,1.10
2023-01-26T06:20:33.077Z,1.10
2023-01-26T06:23:04.173Z,1.00
2023-01-26T06:25:35.036Z,1.00
2023-01-26T06:28:07.821Z,0.90
2023-01-26T06:30:38.787Z,0.90
2023-01-26T06:33:09.766Z,0.90
2023-01-26T06:35:40.647Z,1.00
2023-01-26T06:38:11.521Z,1.10
2023-01-26T06:40:42.402Z,1.10
2023-01-26T06:43:13.349Z,1.10
2023-01-26T06:45:44.353Z,1.10
2023-01-26T06:48:15.299Z,1.30
2023-01-26T06:50:46.576Z,1.30
2023-01-26T06:53:41.520Z,1.20
2023-01-26T06:56:12.392Z,1.10
2023-01-26T06:58:43.453Z,1.10
2023-01-26T07:01:21.374Z,1.20
2023-01-26T07:03:55.056Z,1.30
2023-01-26T07:06:25.896Z,1.40
2023-01-26T07:08:56.825Z,1.40
2023-01-26T07:11:30.196Z,1.50
2023-01-26T07:14:01.144Z,1.20
2023-01-26T07:16:33.854Z,1.20
2023-01-26T07:19:05.019Z,1.20
2023-01-26T07:21:36.106Z,1.10
2023-01-26T07:24:08.609Z,1.10
2023-01-26T07:26:39.479Z,1.10
2023-01-26T07:29:12.747Z,0.90
2023-01-26T07:31:44.676Z,1.00
2023-01-26T07:34:15.747Z,0.90
2023-01-26T07:36:46.690Z,1.00
2023-01-26T07:39:17.539Z,1.10
2023-01-26T07:41:50.070Z,1.10
2023-01-26T07:44:20.929Z,1.20
2023-01-26T07:46:53.682Z,1.30
2023-01-26T07:49:24.646Z,1.60
2023-01-26T07:51:55.523Z,1.50
2023-01-26T07:54:26.500Z,1.20
2023-01-26T07:56:57.435Z,1.20
2023-01-26T07:59:28.426Z,1.30
2023-01-26T08:01:59.298Z,1.40
2023-01-26T08:04:30.312Z,1.30
2023-01-26T08:07:01.445Z,1.40
2023-01-26T08:09:32.562Z,1.40
2023-01-26T08:12:03.600Z,1.40
2023-01-26T08:14:46.376Z,1.30
2023-01-26T08:17:18.871Z,1.30
2023-01-26T08:19:49.811Z,1.20
2023-01-26T08:22:20.723Z,1.10
2023-01-26T08:24:51.893Z,1.10
2023-01-26T08:27:23.181Z,1.10
2023-01-26T08:29:54.072Z,1.20
2023-01-26T08:32:24.963Z,1.30
2023-01-26T08:34:55.852Z,1.20
2023-01-26T08:37:26.686Z,1.30
2023-01-26T08:39:57.549Z,1.30
2023-01-26T08:42:28.926Z,1.20
2023-01-26T08:44:59.886Z,1.40
2023-01-26T08:47:30.779Z,1.50
2023-01-26T08:50:01.724Z,1.30
2023-01-26T08:52:32.548Z,1.30
2023-01-26T08:55:04.698Z,1.30
2023-01-26T08:57:35.562Z,1.40
2023-01-26T09:00:07.614Z,1.50
2023-01-26T09:02:38.596Z,1.50
2023-01-26T09:05:10.154Z,1.70
2023-01-26T09:07:40.992Z,1.80
2023-01-26T09:10:12.495Z,1.70
2023-01-26T09:12:43.461Z,1.70
2023-01-26T09:15:14.895Z,1.80
2023-01-26T09:17:49.442Z,1.80
2023-01-26T09:20:20.764Z,1.70
2023-01-26T09:22:51.590Z,1.70
2023-01-26T09:25:22.481Z,1.70
2023-01-26T09:27:53.422Z,1.50
2023-01-26T09:30:24.959Z,1.50
2023-01-26T09:33:04.469Z,1.60
2023-01-26T09:35:35.375Z,1.60
2023-01-26T09:38:06.306Z,1.60
2023-01-26T09:41:25.267Z,1.70
2023-01-26T09:44:09.727Z,1.60
2023-01-26T09:47:03.642Z,1.60
2023-01-26T09:49:56.773Z,1.70
2023-01-26T09:52:33.639Z,1.90
2023-01-26T09:55:10.516Z,1.80
2023-01-26T09:58:35.822Z,1.80
2023-01-26T10:01:30.234Z,1.50
2023-01-26T10:04:39.240Z,1.60
2023-01-26T10:07:13.149Z,1.80
2023-01-26T10:09:49.311Z,1.70
2023-01-26T10:12:35.591Z,1.80
2023-01-26T10:15:29.879Z,1.80
2023-01-26T10:18:07.298Z,1.80
2023-01-26T10:20:47.411Z,1.80
2023-01-26T10:23:46.412Z,1.80
2023-01-26T10:26:21.112Z,1.80
2023-01-26T10:28:53.128Z,1.70
2023-01-26T10:31:29.387Z,1.60
2023-01-26T10:34:16.185Z,1.50
2023-01-26T10:36:47.606Z,1.60
2023-01-26T10:39:18.621Z,1.70
2023-01-26T10:42:02.845Z,1.70
2023-01-26T10:44:36.864Z,1.80
2023-01-26T10:47:17.356Z,1.90
2023-01-26T10:49:49.017Z,2.00
2023-01-26T10:52:23.142Z,1.90
2023-01-26T10:55:23.650Z,1.90
2023-01-26T10:57:54.565Z,1.70
2023-01-26T11:00:29.755Z,1.50
2023-01-26T11:03:19.343Z,1.50
2023-01-26T11:06:15.241Z,1.40
2023-01-26T11:08:46.422Z,1.40
2023-01-26T11:11:27.663Z,1.40
2023-01-26T11:14:19.743Z,1.50
2023-01-26T11:17:18.808Z,1.60
2023-01-26T11:20:29.663Z,1.50
2023-01-26T11:23:35.404Z,1.70
2023-01-26T11:27:04.806Z,1.70
2023-01-26T11:29:53.957Z,1.80
2023-01-26T11:32:48.159Z,1.80
2023-01-26T11:35:40.537Z,1.50
2023-01-26T11:38:43.299Z,1.40
2023-01-26T11:41:32.236Z,1.50
2023-01-26T11:44:48.918Z,1.50
2023-01-26T11:47:50.636Z,1.50
2023-01-26T11:50:33.465Z,1.60
2023-01-26T11:53:44.745Z,1.50
2023-01-26T11:56:52.059Z,1.50
2023-01-26T11:59:33.246Z,1.70
2023-01-26T12:02:32.382Z,1.70
2023-01-26T12:05:31.410Z,1.60
2023-01-26T12:08:38.261Z,1.40
2023-01-26T12:11:39.566Z,1.40
2023-01-26T12:14:59.973Z,1.30
2023-01-26T12:18:01.108Z,1.30
2023-01-26T12:21:11.071Z,1.30
2023-01-26T12:24:04.555Z,1.40
2023-01-26T12:26:46.338Z,1.40
2023-01-26T12:29:29.609Z,1.50
2023-01-26T12:32:27.284Z,1.40
2023-01-26T12:34:58.976Z,1.50
2023-01-26T12:37:51.020Z,1.40
2023-01-26T12:40:24.817Z,1.50
2023-01-26T12:43:36.905Z,1.50
2023-01-26T12:46:09.312Z,1.50
2023-01-26T12:48:51.423Z,1.40
2023-01-26T12:51:35.840Z,1.30
2023-01-26T12:54:27.403Z,1.20
2023-01-26T12:57:00.736Z,1.30
2023-01-26T12:59:46.900Z,1.40
2023-01-26T13:02:32.488Z,1.40
2023-01-26T13:05:04.957Z,1.30
2023-01-26T13:07:40.386Z,1.40
2023-01-26T13:10:15.228Z,1.60
2023-01-26T13:12:51.127Z,1.70
2023-01-26T13:15:28.668Z,1.60
2023-01-26T13:18:04.580Z,1.40
2023-01-26T13:20:44.124Z,1.40
2023-01-26T13:23:43.551Z,1.30
2023-01-26T13:26:41.759Z,1.40
2023-01-26T13:29:32.010Z,1.40
2023-01-26T13:32:23.178Z,1.50
2023-01-26T13:34:57.897Z,1.40
2023-01-26T13:38:02.475Z,1.40
2023-01-26T13:40:51.689Z,1.50
2023-01-26T13:43:55.316Z,1.60
2023-01-26T13:46:50.975Z,1.50
2023-01-26T13:49:42.603Z,1.50
2023-01-26T13:52:26.634Z,1.40
2023-01-26T13:55:03.054Z,1.40
2023-01-26T13:57:33.955Z,1.40
2023-01-26T14:00:05.303Z,1.40
2023-01-26T14:02:38.794Z,1.30
2023-01-26T14:05:24.848Z,1.40
2023-01-26T14:07:56.668Z,1.50
2023-01-26T14:10:28.419Z,1.60
2023-01-26T14:13:01.145Z,1.50
2023-01-26T14:15:33.525Z,1.60
2023-01-26T14:18:05.468Z,1.70
2023-01-26T14:20:39.669Z,1.80
2023-01-26T14:23:17.348Z,1.50
2023-01-26T14:26:20.090Z,1.50
2023-01-26T14:28:51.877Z,1.40
2023-01-26T14:31:25.580Z,1.40
2023-01-26T14:33:59.191Z,1.50
2023-01-26T14:36:39.640Z,1.40
2023-01-26T14:39:20.699Z,1.50
2023-01-26T14:41:51.749Z,1.40
2023-01-26T14:44:22.623Z,1.30
2023-01-26T14:47:17.694Z,1.30
2023-01-26T14:49:56.474Z,1.30
2023-01-26T14:52:39.961Z,1.30
2023-01-26T14:55:23.635Z,1.40
2023-01-26T14:57:56.274Z,1.50
2023-01-26T15:00:39.701Z,1.60
2023-01-26T15:03:32.804Z,1.40
2023-01-26T15:06:28.355Z,1.30
2023-01-26T15:09:28.043Z,1.40
2023-01-26T15:12:31.997Z,1.40
2023-01-26T15:15:03.247Z,1.50
2023-01-26T15:17:41.281Z,1.50
2023-01-26T15:20:15.333Z,1.50
2023-01-26T15:22:52.108Z,1.50
2023-01-26T15:25:26.691Z,1.50
2023-01-26T15:28:00.192Z,1.30
2023-01-26T15:30:34.866Z,1.30
2023-01-26T15:33:05.834Z,1.30
2023-01-26T15:35:36.704Z,1.50
2023-01-26T15:38:12.950Z,1.50
2023-01-26T15:40:43.848Z,1.60
2023-01-26T15:43:17.769Z,1.70
2023-01-26T15:46:01.368Z,1.70
2023-01-26T15:48:34.990Z,1.50
2023-01-26T15:51:14.176Z,1.50
2023-01-26T15:53:45.174Z,1.50
2023-01-26T15:56:16.932Z,1.50
2023-01-26T15:58:47.788Z,1.40
2023-01-26T16:01:22.852Z,1.50
2023-01-26T16:03:53.817Z,1.60
2023-01-26T16:06:32.647Z,1.60
2023-01-26T16:09:03.834Z,1.60
2023-01-26T16:11:40.352Z,1.60
2023-01-26T16:14:14.418Z,1.60
2023-01-26T16:16:45.766Z,1.70
2023-01-26T16:19:34.415Z,1.70
2023-01-26T16:22:06.043Z,1.70
2023-01-26T16:24:38.109Z,1.70
2023-01-26T16:27:10.105Z,1.70
2023-01-26T16:29:41.038Z,1.70
2023-01-26T16:32:28.702Z,1.90
2023-01-26T16:34:59.704Z,1.90
2023-01-26T16:37:30.536Z,1.70
2023-01-26T16:40:01.403Z,1.70
2023-01-26T16:42:34.320Z,1.60
2023-01-26T16:45:06.402Z,1.50
2023-01-26T16:47:37.278Z,1.50
2023-01-26T16:50:09.059Z,1.40
2023-01-26T16:52:41.227Z,1.40
2023-01-26T16:55:14.234Z,1.30
2023-01-26T16:57:49.876Z,1.50
2023-01-26T17:00:21.460Z,1.50
2023-01-26T17:02:53.218Z,1.50
2023-01-26T17:05:24.099Z,1.50
2023-01-26T17:07:54.989Z,1.50
2023-01-26T17:10:25.966Z,1.60
2023-01-26T17:12:56.838Z,1.40
2023-01-26T17:15:29.264Z,1.30
2023-01-26T17:18:00.210Z,1.30
2023-01-26T17:20:31.121Z,1.40
2023-01-26T17:23:02.003Z,1.40
2023-01-26T17:25:32.895Z,1.50
2023-01-26T17:28:03.892Z,1.50
2023-01-26T17:30:34.881Z,1.50
2023-01-26T17:33:05.771Z,1.40
2023-01-26T17:35:36.661Z,1.20
2023-01-26T17:38:07.535Z,2.60
2023-01-26T17:40:38.477Z,2.60
2023-01-26T17:43:09.328Z,1.90
2023-01-26T17:45:40.362Z,1.70
2023-01-26T17:48:11.821Z,1.50
2023-01-26T17:50:49.888Z,1.50
2023-01-26T17:53:20.879Z,1.30
2023-01-26T17:55:52.386Z,1.30
2023-01-26T17:58:23.495Z,1.00
2023-01-26T18:00:54.402Z,1.00
2023-01-26T18:03:26.950Z,1.00
2023-01-26T18:05:58.253Z,1.10
2023-01-26T18:08:29.172Z,1.00
2023-01-26T18:11:02.381Z,1.00
2023-01-26T18:13:33.933Z,0.90
2023-01-26T18:16:06.916Z,0.90
2023-01-26T18:18:37.754Z,0.80
2023-01-26T18:21:17.821Z,0.70
2023-01-26T18:23:54.578Z,0.60
2023-01-26T18:26:28.989Z,0.60
2023-01-26T18:29:00.202Z,0.40
2023-01-26T18:31:39.615Z,0.40
2023-01-26T18:34:11.873Z,0.40
2023-01-26T18:36:42.761Z,0.50
2023-01-26T18:39:16.684Z,0.50
2023-01-26T18:41:47.670Z,0.50
2023-01-26T18:44:18.592Z,0.50
2023-01-26T18:46:49.500Z,0.40
2023-01-26T18:49:20.393Z,0.40
2023-01-26T18:51:52.318Z,0.50
2023-01-26T18:54:24.409Z,0.50
2023-01-26T18:56:56.986Z,0.40
2023-01-26T18:59:27.974Z,0.40
2023-01-26T19:02:00.447Z,0.40
2023-01-26T19:04:31.703Z,0.40
2023-01-26T19:07:02.656Z,0.50
2023-01-26T19:09:35.757Z,0.50
2023-01-26T19:12:07.386Z,0.60
2023-01-26T19:14:38.389Z,0.40
2023-01-26T19:17:09.317Z,0.40
2023-01-26T19:19:41.959Z,0.20
2023-01-26T19:22:13.050Z,0.30
2023-01-26T19:24:44.138Z,0.30
2023-01-26T19:27:15.090Z,0.20
2023-01-26T19:29:46.067Z,0.20
2023-01-26T19:32:17.063Z,0.20
2023-01-26T19:34:48.107Z,0.10
2023-01-26T19:37:19.301Z,0.10
2023-01-26T19:39:52.964Z,0.20
2023-01-26T19:42:23.874Z,0.30
2023-01-26T19:44:54.819Z,0.30
2023-01-26T19:47:25.661Z,0.30
2023-01-26T19:49:56.702Z,0.30
2023-01-26T19:52:29.527Z,0.30
2023-01-26T19:55:00.521Z,0.20
2023-01-26T19:57:32.586Z,0.20
2023-01-26T20:00:08.663Z,0.00
2023-01-26T20:02:39.849Z,0.00
2023-01-26T20:05:11.201Z,0.10
2023-01-26T20:07:42.615Z,0.00
2023-01-26T20:10:13.718Z,0.00
2023-01-26T20:12:44.694Z,0.10
2023-01-26T20:15:15.812Z,0.10
2023-01-26T20:17:46.769Z,0.10
2023-01-26T20:20:18.155Z,0.00
2023-01-26T20:22:50.491Z,0.10
2023-01-26T20:25:21.447Z,0.00
2023-01-26T20:27:52.981Z,-0.20
2023-01-26T20:30:24.038Z,-0.20
2023-01-26T20:32:55.107Z,-0.20
2023-01-26T20:35:26.380Z,0.00
2023-01-26T20:37:58.576Z,0.00
2023-01-26T20:40:30.284Z,-0.10
2023-01-26T20:43:04.151Z,-0.10
2023-01-26T20:45:35.196Z,0.00
2023-01-26T20:48:06.722Z,0.00
2023-01-26T20:50:40.674Z,-0.10
2023-01-26T20:53:11.622Z,0.00
2023-01-26T20:55:44.983Z,0.00
2023-01-26T20:58:15.837Z,0.10
2023-01-26T21:00:46.888Z,0.00
2023-01-26T21:03:20.052Z,0.00
2023-01-26T21:05:51.007Z,-0.10
2023-01-26T21:08:21.863Z,0.10
2023-01-26T21:10:53.252Z,0.10
2023-01-26T21:13:24.206Z,-0.10
2023-01-26T21:15:55.986Z,0.00
2023-01-26T21:18:26.950Z,0.00
2023-01-26T21:21:00.802Z,0.20
2023-01-26T21:23:34.556Z,0.20
2023-01-26T21:26:09.677Z,0.20
2023-01-26T21:28:40.666Z,0.20
2023-01-26T21:31:15.717Z,0.30
2023-01-26T21:33:50.112Z,0.40
2023-01-26T21:36:24.771Z,0.20
2023-01-26T21:39:00.902Z,0.30
2023-01-26T21:41:51.858Z,0.30
2023-01-26T21:44:29.134Z,0.20
2023-01-26T21:47:05.653Z,0.10
2023-01-26T21:49:36.492Z,0.10
2023-01-26T21:52:27.340Z,0.20
2023-01-26T21:55:00.942Z,0.20
2023-01-26T21:57:50.091Z,0.20
2023-01-26T22:00:21.656Z,0.20
2023-01-26T22:02:54.429Z,0.20
2023-01-26T22:05:25.365Z,0.20
2023-01-26T22:07:56.203Z,0.20
2023-01-26T22:10:27.060Z,0.20
2023-01-26T22:12:58.068Z,0.10
2023-01-26T22:15:28.989Z,0.00
2023-01-26T22:18:02.318Z,0.00
2023-01-26T22:20:33.193Z,0.20
2023-01-26T22:23:04.228Z,0.30
2023-01-26T22:25:39.111Z,0.20
2023-01-26T22:28:10.067Z,0.30
2023-01-26T22:30:44.028Z,0.20
2023-01-26T22:33:15.012Z,0.20
2023-01-26T22:35:48.802Z,0.20
2023-01-26T22:38:19.854Z,0.20
2023-01-26T22:40:50.746Z,0.10
2023-01-26T22:43:22.457Z,0.20
2023-01-26T22:45:54.029Z,0.20
2023-01-26T22:48:24.945Z,0.10
2023-01-26T22:50:55.825Z,0.10
2023-01-26T22:53:26.680Z,0.30
2023-01-26T22:55:57.551Z,0.30
2023-01-26T22:58:28.622Z,0.40
2023-01-26T23:01:10.535Z,0.30
2023-01-26T23:03:42.781Z,0.30
2023-01-26T23:06:14.970Z,0.10
2023-01-26T23:08:46.264Z,0.10
2023-01-26T23:11:26.405Z,0.20
2023-01-26T23:13:59.546Z,0.30
2023-01-26T23:16:30.527Z,0.20
2023-01-26T23:19:03.699Z,0.20
2023-01-26T23:21:34.638Z,0.20
2023-01-26T23:24:06.100Z,0.10
2023-01-26T23:26:37.077Z,0.10
2023-01-26T23:29:08.002Z,0.00
2023-01-26T23:31:38.905Z,-0.10
2023-01-26T23:34:10.016Z,-0.20
2023-01-26T23:36:40.935Z,-0.10
2023-01-26T23:39:11.816Z,-0.10
2023-01-26T23:41:42.701Z,0.00
2023-01-26T23:44:13.753Z,0.00
2023-01-26T23:46:44.811Z,0.10
2023-01-26T23:49:15.810Z,0.10
2023-01-26T23:51:46.752Z,0.20
2023-01-26T23:54:17.754Z,0.10
2023-01-26T23:56:48.730Z,0.00
2023-01-26T23:59:19.570Z,0.10
